Sewickley, Pennsylvania
Current Conditions -  °F | °C
As of 4:51 AM on Monday 26 Jan 2015 (Local Time) from KPIT Reporting Station
Light Snow Light Snow  
Wind Chill: 23°   Ceiling: 700
Heat Index: 29°   Visibility: 4mi
Dew Point: 28°   Wind: 6mph
Humidity: 96%   Direction: 10°N
Pressure: 29.68"   Gusts: NA
Location:  40.54°N, 80.18°W
Report Text: KPIT 260951Z 01005KT 4SM -SN BR OVC007 M02/M02 A2968 RMK AO2 SLP070 P0000 T10171022
Loading
Personal Weather Stations






























Interactive Weather Map New forecast layout! Learn more

10-Day Weather Forecast

Advertisements
Track Severe Weather on mobile